KSVE/SVE METAR and TAF weather

Enter ICAO airport designator
Station Type Date Time Source
KSVE METAR 2019/12/08 16:55 UTC NOAA

KSVE 081655Z AUTO 34004KT 10SM SCT041 03/03 A3001 RMK AO2


Station Type Date Time Source
KSVE Decoded METAR 2019/12/08 16:55 UTC NOAA

Susanville Municipal, CA, United States (KSVE) 40-23N 120-34W
Dec 08, 2019 - 11:55 AM EST / 2019.12.08 1655 UTC
Wind: from the NNW (340 degrees) at 5 MPH (4 KT):0
Visibility: 10 mile(s):0
Sky conditions: partly cloudy
Temperature: 37 F (3 C)
Dew Point: 37 F (3 C)
Relative Humidity: 100%
Pressure (altimeter): 30.01 in. Hg (1016 hPa)
ob: KSVE 081655Z AUTO 34004KT 10SM SCT041 03/03 A3001 RMK AO2
cycle: 17

Station Type Date Time Source
KSVE TAF UTC NOAA

Error!

Example: see airport list